KLXT

Details ICAO KLXT
Name LEES SUMMIT MUNI
Region United States
Timezone America/Chicago (UTC-6.0)
Plans Departing 9
Arriving 1
Stats Elevation 1,004 ft / 306 m (AMSL)
Location 38.959663° -94.371287°
Runways 2
Magnetic Variation 1.520° E
Sunrise 2017-12-11 13:27:48 UTC / 2017-12-11 07:27:48 Local
Sunset 2017-12-11 22:56:49 UTC / 2017-12-11 16:56:49 Local
Advertisement - Login to hide

Runways

ID Width Length Bearing (true) Bearing (mag) Surface Threshold Offset Overrun Length
11 75 ft / 23 m 3,794 ft / 1,156 m 113.47° 111.95° Concrete 0 ft / 0 m 0 ft / 0 m
18 75 ft / 23 m 4,023 ft / 1,226 m 183.38° 181.86° Concrete 0 ft / 0 m 0 ft / 0 m
29 75 ft / 23 m 3,794 ft / 1,156 m 293.48° 291.96° Concrete 0 ft / 0 m 0 ft / 0 m
36 75 ft / 23 m 4,023 ft / 1,226 m 3.38° 1.86° Concrete 0 ft / 0 m 0 ft / 0 m

Map

Weather


0- 5 10 15 20 25 30 35+ Temperature / ° C

Clouds and Precipitation
Forecast for 2017-12-11 12:00 UTC. Updated 23 minutes ago

Ground ~20,000 ft ~40,000 ft Winds

METAR

KLXT 110653Z AUTO 21006KT 10SM CLR 05/M05 A3010 RMK AO2 SLP195 T00501050

TAF

Not found

Frequencies

Recorded 124.17 MHz ASOS
Clearance 118.45 MHz CLNC DEL
Unicom 122.80 MHz CTAF/UNICOM
Approach 119.00 MHz KANSAS CITY APP/DEP
Warning: Do not use this data for real-world aviation or navigation. No guarantee of current accuracy is given.